WetterOnline ( https://www.wetteronline.ch )

Wetter aktuell Rostock

Aktuelles Wetter: Rostock-Warnemünde (10m)

6-stündlich | Neueste Meldungen
Ortszeit Temperatur Wetter
Fr, 10.07. 14:00 12.9° C Regen
Fr, 10.07. 8:00 12.7° C Sprühregen
Fr, 10.07. 2:00 12.4° C bewölkt
Do, 09.07. 20:00 13.5° C Sprühregen
Do, 09.07. 14:00 13.4° C leichter Regen
Do, 09.07. 8:00 13.8° C bedeckt
Do, 09.07. 2:00 14.5° C wolkig
Mi, 08.07. 20:00 16.1° C wolkig
Ortszeit Temperatur Wetter
Fr, 10.07. 14:30 13.5° C Sprühregen
Fr, 10.07. 14:20 13.5° C Sprühregen
Fr, 10.07. 14:10 13.3° C Sprühregen
Fr, 10.07. 14:00 12.9° C Regen
Fr, 10.07. 13:50 12.9° C Sprühregen
Fr, 10.07. 13:40 13.0° C Regen
Fr, 10.07. 13:30 13.3° C Sprühregen
Fr, 10.07. 13:00 13.4° C Sprühregen
Ortszeit Relative Feuchte Sichtweite
Fr, 10.07. 14:00 94% 15 km
Fr, 10.07. 8:00 94% 21 km
Fr, 10.07. 2:00 95% 35 km
Do, 09.07. 20:00 94% 4.9 km
Do, 09.07. 14:00 89% 14 km
Do, 09.07. 8:00 72% 55 km
Do, 09.07. 2:00 67% 60 km
Mi, 08.07. 20:00 62% 65 km
Ortszeit Relative Feuchte Sichtweite
Fr, 10.07. 14:30 92% 35 km
Fr, 10.07. 14:20 92% -
Fr, 10.07. 14:10 91% -
Fr, 10.07. 14:00 94% 15 km
Fr, 10.07. 13:50 94% -
Fr, 10.07. 13:40 96% -
Fr, 10.07. 13:30 96% 3.6 km
Fr, 10.07. 13:00 96% 4.9 km
Ortszeit Niederschlagsmenge Niederschlagsart
Fr, 10.07. 14:00 10 l/m2 in 6 Std. Regen
Fr, 10.07. 8:00 5 l/m2 in 12 Std. Regen
Fr, 10.07. 2:00 0.6 l/m2 in 6 Std. Regen
Do, 09.07. 20:00 12 l/m2 in 12 Std. Regen
Do, 09.07. 14:00 4 l/m2 in 6 Std. Regen
Do, 09.07. 8:00 0.0 l/m2 in 12 Std. -
Do, 09.07. 2:00 0.0 l/m2 in 6 Std. -
Mi, 08.07. 20:00 0.1 l/m2 in 12 Std. -
Ortszeit Niederschlagsmenge Niederschlagsart
Fr, 10.07. 14:30 0.1 l/m2 in 1 Std. -
Fr, 10.07. 14:20 keine Meldung -
Fr, 10.07. 14:10 keine Meldung -
Fr, 10.07. 14:00 3.2 l/m2 in 1 Std. Regen
Fr, 10.07. 13:50 keine Meldung -
Fr, 10.07. 13:40 keine Meldung -
Fr, 10.07. 13:30 1.0 l/m2 in 1 Std. -
Fr, 10.07. 13:00 1.3 l/m2 in 1 Std. Regen
Ortszeit Stärke Spitze Richtung
km/h Bft. km/h Grad Sektor
Fr, 10.07. 14:00 40 6 50 20° N
Fr, 10.07. 8:00 7 2 18 80° O
Fr, 10.07. 2:00 4 1 36 130° SO
Do, 09.07. 20:00 29 5 40 30° NO
Do, 09.07. 14:00 11 2 18 120° SO
Do, 09.07. 8:00 7 2 25 200° S
Do, 09.07. 2:00 19 3 37 290° W
Mi, 08.07. 20:00 13 3 39 310° NW
Ortszeit Stärke Spitze Richtung
km/h Bft. km/h Grad Sektor
Fr, 10.07. 14:30 39 6 48 20° N
Fr, 10.07. 14:20 39 6 - 20° N
Fr, 10.07. 14:10 37 5 - 20° N
Fr, 10.07. 14:00 40 6 50 20° N
Fr, 10.07. 13:50 40 6 - 20° N
Fr, 10.07. 13:40 43 6 - 20° N
Fr, 10.07. 13:30 39 6 46 30° NO
Fr, 10.07. 13:00 28 4 37 30° NO
Ortszeit Untergrenze Bedeckung Gattung
total tief tief mittel hoch
Fr, 10.07. 14:00 150 m 8/8 8/8 - - -
Fr, 10.07. 8:00 510 m 8/8 8/8 - - -
Fr, 10.07. 2:00 3000 m 7/8 7/8 - - -
Do, 09.07. 20:00 210 m 7/8 7/8 - - -
Do, 09.07. 14:00 1320 m 7/8 7/8 - - -
Do, 09.07. 8:00 4200 m 8/8 8/8 - - -
Do, 09.07. 2:00 960 m 7/8 2/8 - - -
Mi, 08.07. 20:00 1410 m 6/8 6/8 - - -
Ortszeit Bedeckungsgrad in Achtel und Wolkenuntergrenze
Fr, 10.07. 14:30 4(240m) 7(360m) 7(780m)
Fr, 10.07. 14:20 4(240m) 7(360m) 7(780m)
Fr, 10.07. 14:10 4(180m) 7(360m) 8(540m)
Fr, 10.07. 14:00 7(150m) 8(300m)
Fr, 10.07. 13:50 7(150m) 8(300m)
Fr, 10.07. 13:40 6(150m) 7(330m)
Fr, 10.07. 13:30 6(150m) 7(390m) 8(510m)
Fr, 10.07. 13:00 7(150m) 8(300m)
Ortszeit Luftdruck NN (hPa) Tendenz (hPa in 3 Std.)
Fr, 10.07. 14:00 1006 - 0,1
Fr, 10.07. 8:00 1009 - 0,6
Fr, 10.07. 2:00 1011 - 0,1
Do, 09.07. 20:00 1011 - 0,1
Do, 09.07. 14:00 1013 - 1,0
Do, 09.07. 8:00 1015 - 0,2
Do, 09.07. 2:00 1015 + 0,1
Mi, 08.07. 20:00 1015 + 0,1
Ortszeit Luftdruck NN (hPa) Tendenz (hPa in 3 Std.)
Fr, 10.07. 14:30 1006 + 0,2
Fr, 10.07. 14:20 1006 keine Meldung
Fr, 10.07. 14:10 1006 keine Meldung
Fr, 10.07. 14:00 1006 - 0,1
Fr, 10.07. 13:50 1006 keine Meldung
Fr, 10.07. 13:40 1006 keine Meldung
Fr, 10.07. 13:30 1006 - 0,5
Fr, 10.07. 13:00 1006 - 1,3
Ortszeit Schneehöhe (cm)
Fr, 10.07. 14:00 -
Fr, 10.07. 8:00 -
Fr, 10.07. 2:00 -
Do, 09.07. 20:00 -
Do, 09.07. 14:00 -
Do, 09.07. 8:00 -
Do, 09.07. 2:00 -
Mi, 08.07. 20:00 -
Ortszeit Schneehöhe (cm)
Fr, 10.07. 14:30 -
Fr, 10.07. 14:20 -
Fr, 10.07. 14:10 -
Fr, 10.07. 14:00 -
Fr, 10.07. 13:50 -
Fr, 10.07. 13:40 -
Fr, 10.07. 13:30 -
Fr, 10.07. 13:00 -
Link zu dieser Seite / Seite empfehlen

Das Wetter in ...